Dades meteomassalio
Diari Summary for Noviembre 15, 2017 Units:  English    Metric   Both
« Previous Day
Next Day »
Diari Semanal Mensual Anual Personalitzat
  Maxima: Minima: Mijana:
Temperatura: TemperatureC °F -3.9 °F 2.9 °F
Rosada: DewpointC °F -8.8 °F -5.9 °F
Humitat: Humidity % 31 % 55 %
Velocitat del vent: WindSpeedKMH mph 0.0 mph 1.9 mph
Racha vent: WindSpeedGustKMH mph - -
Vent:- - WSW
Pressio: PressurehPa in 1021.6 in -
Pluja: 0.0 in    
Historical Graphs
 
 
Tabular Data for Noviembre 15, 2017
Time Temperature Dew Point Pressure Wind Wind Speed Wind Gust Humidity Rainfall Rate (Hourly) solar Conditions
TemperatureC °F DewpointC °F PressurehPa in Calm     Humidity % HourlyPrecipMM in SolarRadiationWatts/m^2 W/m2 Conditions
00:00 -2.2 °F -8.6 °F 1024.9 in Calm     62 % 0.0 in 0.0 W/m2 CLR
00:05 -2.2 °F -8.3 °F 1024.9 in WSW 7.4 mph 7.4 mph 63 % 0.0 in 0.0 W/m2 CLR
00:10 -2.8 °F -8.4 °F 1024.9 in WSW 7.4 mph 7.4 mph 65 % 0.0 in 0.0 W/m2 CLR
00:15 -2.8 °F -8.8 °F 1024.9 in Calm   0.2 mph 63 % 0.0 in 0.0 W/m2 CLR
00:20 -2.8 °F -8.8 °F 1024.9 in Calm     63 % 0.0 in 0.0 W/m2 CLR
00:25 -2.8 °F -8.7 °F 1025.3 in Calm     64 % 0.0 in 0.0 W/m2 CLR
00:30 -2.8 °F -8.4 °F 1025.3 in Calm     65 % 0.0 in 0.0 W/m2 CLR
00:35 -2.8 °F -8.3 °F 1025.3 in Calm     66 % 0.0 in 0.0 W/m2 CLR
00:40 -2.8 °F -8.3 °F 1025.3 in Calm     66 % 0.0 in 0.0 W/m2 CLR
00:45 -2.8 °F -8.3 °F 1024.9 in Calm     66 % 0.0 in 0.0 W/m2 CLR
00:50 -2.8 °F -8.1 °F 1024.9 in Calm     67 % 0.0 in 0.0 W/m2 CLR
00:55 -2.8 °F -8.1 °F 1024.9 in SW 3.7 mph   67 % 0.0 in 0.0 W/m2 CLR
01:00 -2.8 °F -8.1 °F 1024.9 in Calm     67 % 0.0 in 0.0 W/m2 CLR
01:05 -2.8 °F -7.9 °F 1024.9 in WSW 3.7 mph 3.7 mph 68 % 0.0 in 0.0 W/m2 CLR
01:10 -2.8 °F -7.9 °F 1024.9 in WSW 5.6 mph 5.6 mph 68 % 0.0 in 0.0 W/m2 CLR
01:15 -2.8 °F -7.9 °F 1024.9 in South 5.6 mph 5.6 mph 68 % 0.0 in 0.0 W/m2 CLR
01:20 -2.8 °F -7.7 °F 1025.3 in Calm     69 % 0.0 in 0.0 W/m2 CLR
01:25 -2.8 °F -7.9 °F 1025.3 in Calm     68 % 0.0 in 0.0 W/m2 CLR
01:30 -2.8 °F -7.9 °F 1025.3 in Calm     68 % 0.0 in 0.0 W/m2 CLR
01:35 -3.3 °F -8.4 °F 1025.3 in Calm     68 % 0.0 in 0.0 W/m2 CLR
01:40 -3.3 °F -8.4 °F 1025.3 in Calm     68 % 0.0 in 0.0 W/m2 CLR
01:45 -3.3 °F -8.2 °F 1024.9 in Calm     69 % 0.0 in 0.0 W/m2 CLR
01:50 -3.3 °F -8.4 °F 1024.9 in Calm     68 % 0.0 in 0.0 W/m2 CLR
01:55 -3.3 °F -8.2 °F 1024.9 in Calm   0.3 mph 69 % 0.0 in 0.0 W/m2 CLR
02:00 -3.3 °F -8.2 °F 1024.9 in WSW 4.8 mph 4.8 mph 69 % 0.0 in 0.0 W/m2 CLR
02:05 -3.3 °F -8.0 °F 1024.9 in West 7.4 mph 7.4 mph 70 % 0.0 in 0.0 W/m2 CLR
02:10 -3.3 °F -8.0 °F 1024.9 in West 1.9 mph 1.9 mph 70 % 0.0 in 0.0 W/m2 CLR
02:15 -3.3 °F -8.0 °F 1024.9 in West 5.6 mph 5.6 mph 70 % 0.0 in 0.0 W/m2 CLR
02:20 -3.3 °F -7.8 °F 1024.9 in West 3.7 mph 3.7 mph 71 % 0.0 in 0.0 W/m2 CLR
02:25 -3.3 °F -7.8 °F 1024.9 in Calm     71 % 0.0 in 0.0 W/m2 CLR
02:30 -3.3 °F -7.8 °F 1024.9 in Calm     71 % 0.0 in 0.0 W/m2 CLR
02:35 -3.9 °F -8.2 °F 1024.9 in Calm     72 % 0.0 in 0.0 W/m2 CLR
02:40 -3.3 °F -7.7 °F 1024.9 in West 3.7 mph 3.7 mph 72 % 0.0 in 0.0 W/m2 CLR
02:45 -3.3 °F -7.7 °F 1024.9 in West 1.9 mph 1.9 mph 72 % 0.0 in 0.0 W/m2 CLR
02:50 -3.3 °F -7.7 °F 1024.9 in West 7.4 mph 7.4 mph 72 % 0.0 in 0.0 W/m2 CLR
02:55 -3.9 °F -8.2 °F 1024.9 in West 6.4 mph 6.4 mph 72 % 0.0 in 0.0 W/m2 CLR
03:00 -3.9 °F -8.4 °F 1024.9 in Calm     71 % 0.0 in 0.0 W/m2 CLR
03:05 -3.9 °F -8.4 °F 1024.9 in West 7.4 mph 7.4 mph 71 % 0.0 in 0.0 W/m2 CLR
03:10 -3.9 °F -8.4 °F 1024.9 in Calm     71 % 0.0 in 0.0 W/m2 CLR
03:15 -3.9 °F -8.4 °F 1024.9 in Calm     71 % 0.0 in 0.0 W/m2 CLR
03:20 -3.9 °F -8.4 °F 1024.9 in Calm     71 % 0.0 in 0.0 W/m2 CLR
03:25 -3.9 °F -8.4 °F 1024.9 in Calm     71 % 0.0 in 0.0 W/m2 CLR
03:30 -3.9 °F -8.4 °F 1024.9 in Calm     71 % 0.0 in 0.0 W/m2 CLR
03:35 -3.9 °F -8.4 °F 1024.9 in West 1.9 mph 1.9 mph 71 % 0.0 in 0.0 W/m2 CLR
03:40 -3.9 °F -8.4 °F 1024.6 in Calm     71 % 0.0 in 0.0 W/m2 CLR
03:45 -3.9 °F -8.4 °F 1024.6 in Calm     71 % 0.0 in 0.0 W/m2 CLR
03:50 -3.9 °F -8.2 °F 1024.6 in Calm     72 % 0.0 in 0.0 W/m2 CLR
03:55 -3.9 °F -8.4 °F 1024.6 in Calm     71 % 0.0 in 0.0 W/m2 CLR
04:01 -3.9 °F -8.2 °F 1024.6 in Calm     72 % 0.0 in 0.0 W/m2 CLR
04:11 -3.9 °F -8.2 °F 1024.6 in Calm     72 % 0.0 in 0.0 W/m2 CLR
04:16 -3.9 °F -8.4 °F 1024.6 in Calm     71 % 0.0 in 0.0 W/m2 CLR
04:21 -3.9 °F -8.2 °F 1024.6 in Calm     72 % 0.0 in 0.0 W/m2 CLR
04:22 -3.9 °F -8.2 °F 1024.6 in Calm     72 % 0.0 in 0.0 W/m2 CLR
04:24 -3.9 °F -8.2 °F 1024.3 in Calm     72 % 0.0 in 0.0 W/m2 CLR
04:27 -3.9 °F -8.2 °F 1024.3 in Calm     72 % 0.0 in 0.0 W/m2 CLR
04:32 -3.3 °F -7.5 °F 1024.6 in Calm     73 % 0.0 in 0.0 W/m2 CLR
04:37 -3.3 °F -7.5 °F 1024.3 in Calm     73 % 0.0 in 0.0 W/m2 CLR
04:42 -3.3 °F -7.3 °F 1024.3 in Calm     74 % 0.0 in 0.0 W/m2 CLR
04:47 -3.9 °F -7.8 °F 1024.3 in West 3.7 mph 3.7 mph 74 % 0.0 in 0.0 W/m2 CLR
04:52 -3.9 °F -7.8 °F 1024.3 in Calm     74 % 0.0 in 0.0 W/m2 CLR
04:57 -3.9 °F -8.0 °F 1024.3 in Calm     73 % 0.0 in 0.0 W/m2 CLR
05:02 -3.9 °F -8.0 °F 1024.3 in Calm     73 % 0.0 in 0.0 W/m2 CLR
05:07 -3.9 °F -8.0 °F 1024.3 in Calm     73 % 0.0 in 0.0 W/m2 CLR
05:12 -3.9 °F -7.8 °F 1024.3 in Calm     74 % 0.0 in 0.0 W/m2 CLR
05:17 -3.9 °F -7.8 °F 1024.3 in Calm     74 % 0.0 in 0.0 W/m2 CLR
05:22 -3.9 °F -7.8 °F 1024.3 in Calm     74 % 0.0 in 0.0 W/m2 CLR
05:27 -3.9 °F -7.7 °F 1024.3 in Calm     75 % 0.0 in 0.0 W/m2 CLR
05:32 -3.9 °F -7.8 °F 1024.3 in Calm     74 % 0.0 in 0.0 W/m2 CLR
05:37 -3.9 °F -7.8 °F 1024.3 in Calm     74 % 0.0 in 0.0 W/m2 CLR
05:42 -3.9 °F -7.8 °F 1024.3 in Calm     74 % 0.0 in 0.0 W/m2 CLR
05:47 -3.9 °F -7.7 °F 1024.3 in Calm     75 % 0.0 in 0.0 W/m2 CLR
05:52 -3.9 °F -7.8 °F 1024.3 in Calm     74 % 0.0 in 0.0 W/m2 CLR
05:57 -3.9 °F -7.8 °F 1024.3 in Calm     74 % 0.0 in 0.0 W/m2 CLR
06:02 -3.9 °F -7.5 °F 1024.3 in Calm     76 % 0.0 in 0.0 W/m2 CLR
06:07 -3.9 °F -7.5 °F 1024.3 in West 7.4 mph 7.4 mph 76 % 0.0 in 0.0 W/m2 CLR
06:12 -3.9 °F -7.7 °F 1024.3 in West 7.4 mph 7.4 mph 75 % 0.0 in 0.0 W/m2 CLR
06:17 -3.9 °F -7.7 °F 1024.3 in West 5.6 mph 5.6 mph 75 % 0.0 in 0.0 W/m2 CLR
06:22 -3.9 °F -7.7 °F 1024.3 in WSW 5.6 mph 5.6 mph 75 % 0.0 in 0.0 W/m2 CLR
06:27 -3.3 °F -7.3 °F 1024.3 in SW 3.7 mph   74 % 0.0 in 0.0 W/m2 CLR
06:32 -3.3 °F -7.3 °F 1024.3 in Calm     74 % 0.0 in 0.0 W/m2 CLR
06:37 -3.3 °F -7.1 °F 1024.3 in WSW 1.9 mph   75 % 0.0 in 0.0 W/m2 CLR
06:42 -3.3 °F -7.3 °F 1024.3 in WSW 3.7 mph 3.7 mph 74 % 0.0 in 0.0 W/m2 CLR
06:47 -3.3 °F -7.1 °F 1024.3 in WSW 5.6 mph 5.6 mph 75 % 0.0 in 0.0 W/m2 CLR
06:52 -2.8 °F -6.6 °F 1024.3 in WSW 3.2 mph 3.2 mph 75 % 0.0 in 0.0 W/m2 CLR
06:57 -3.3 °F -7.1 °F 1024.3 in WSW 1.6 mph 1.6 mph 75 % 0.0 in 0.0 W/m2 CLR
07:02 -3.3 °F -6.9 °F 1024.6 in Calm     76 % 0.0 in 0.0 W/m2 CLR
07:07 -3.3 °F -6.8 °F 1024.6 in Calm     77 % 0.0 in 0.0 W/m2 CLR
07:12 -3.3 °F -6.8 °F 1024.6 in WSW 5.6 mph 5.6 mph 77 % 0.0 in 0.0 W/m2 CLR
07:17 -3.3 °F -6.8 °F 1024.6 in WSW 5.6 mph   77 % 0.0 in 0.0 W/m2 CLR
07:22 -3.3 °F -6.8 °F 1024.6 in WSW 7.4 mph 7.4 mph 77 % 0.0 in 0.0 W/m2 CLR
07:27 -3.3 °F -6.8 °F 1024.6 in WSW 4.8 mph 4.8 mph 77 % 0.0 in 0.0 W/m2 CLR
07:32 -3.3 °F -6.8 °F 1024.6 in WSW 5.6 mph 5.6 mph 77 % 0.0 in 0.0 W/m2 CLR
07:37 -3.3 °F -6.8 °F 1024.6 in WSW 1.9 mph   77 % 0.0 in 5.0 W/m2 CLR
07:42 -3.9 °F -7.5 °F 1024.6 in Calm   0.3 mph 76 % 0.0 in 11.0 W/m2 OVC
07:47 -3.9 °F -7.5 °F 1024.6 in Calm     76 % 0.0 in 12.0 W/m2 OVC
07:48 -3.9 °F -7.5 °F 1024.6 in Calm     76 % 0.0 in 12.0 W/m2 OVC
07:53 -3.9 °F -7.3 °F 1024.6 in Calm     77 % 0.0 in 14.0 W/m2 OVC
07:58 -3.9 °F -7.3 °F 1024.6 in WSW 3.2 mph 3.2 mph 77 % 0.0 in 19.0 W/m2 OVC
08:03 -3.3 °F -6.8 °F 1024.6 in WSW 3.7 mph 3.7 mph 77 % 0.0 in 23.0 W/m2 OVC
08:08 -3.3 °F -6.8 °F 1024.9 in Calm     77 % 0.0 in 32.0 W/m2 OVC
08:13 -3.3 °F -6.8 °F 1024.9 in Calm     77 % 0.0 in 39.0 W/m2 OVC
08:18 -3.3 °F -6.9 °F 1024.9 in Calm     76 % 0.0 in 51.0 W/m2 OVC
08:23 -2.8 °F -6.6 °F 1024.9 in Calm     75 % 0.0 in 70.0 W/m2 OVC
08:28 -2.8 °F -6.9 °F 1024.9 in Calm     73 % 0.0 in 86.0 W/m2 OVC
08:33 -2.8 °F -6.9 °F 1024.9 in Calm     73 % 0.0 in 84.0 W/m2 OVC
08:38 -2.2 °F -6.4 °F 1024.9 in Calm     73 % 0.0 in 107.0 W/m2 OVC
08:43 -1.7 °F -6.1 °F 1024.9 in Calm     72 % 0.0 in 86.0 W/m2 OVC
08:48 -1.7 °F -6.2 °F 1024.9 in Calm     71 % 0.0 in 107.0 W/m2 OVC
08:53 -1.7 °F -6.4 °F 1024.9 in Calm     70 % 0.0 in 102.0 W/m2 SCT
08:58 -1.1 °F -5.9 °F 1024.6 in Calm     70 % 0.0 in 109.0 W/m2 CLR
09:03 -1.1 °F -6.1 °F 1024.9 in Calm     69 % 0.0 in 111.0 W/m2 CLR
09:08 -0.6 °F -5.6 °F 1024.9 in Calm     69 % 0.0 in 118.0 W/m2 CLR
09:13 -0.6 °F -5.7 °F 1024.9 in Calm     68 % 0.0 in 120.0 W/m2 CLR
09:18 0.0 °F -5.4 °F 1024.9 in Calm     67 % 0.0 in 139.0 W/m2 CLR
09:23 0.0 °F -5.4 °F 1024.9 in Calm     67 % 0.0 in 156.0 W/m2 CLR
09:28 0.6 °F -5.1 °F 1024.9 in Calm     66 % 0.0 in 181.0 W/m2 CLR
09:33 1.1 °F -4.7 °F 1024.9 in Calm     65 % 0.0 in 262.0 W/m2 CLR
09:38 1.1 °F -4.7 °F 1024.9 in Calm     65 % 0.0 in 285.0 W/m2 CLR
09:43 2.2 °F -4.1 °F 1024.9 in Calm     63 % 0.0 in 225.0 W/m2 CLR
09:48 2.8 °F -3.8 °F 1024.9 in Calm     62 % 0.0 in 221.0 W/m2 CLR
09:53 2.8 °F -4.0 °F 1024.9 in Calm     61 % 0.0 in 207.0 W/m2 CLR
09:58 2.8 °F -4.0 °F 1024.9 in Calm     61 % 0.0 in 207.0 W/m2 CLR
10:01 3.3 °F -3.5 °F 1024.9 in Calm     61 % 0.0 in 243.0 W/m2 CLR
10:06 3.9 °F -3.2 °F 1024.9 in Calm     60 % 0.0 in 271.0 W/m2 CLR
10:11 4.4 °F -2.9 °F 1024.9 in Calm     59 % 0.0 in 309.0 W/m2 CLR
10:16 5.0 °F -2.6 °F 1024.9 in Calm     58 % 0.0 in 313.0 W/m2 CLR
10:21 5.6 °F -2.3 °F 1024.9 in Calm     57 % 0.0 in 359.0 W/m2 CLR
10:26 5.6 °F -2.8 °F 1024.9 in Calm     55 % 0.0 in 299.0 W/m2 CLR
10:31 6.1 °F -2.5 °F 1024.9 in Calm     54 % 0.0 in 341.0 W/m2 CLR
10:36 6.7 °F -2.2 °F 1024.9 in Calm     53 % 0.0 in 348.0 W/m2 CLR
10:41 7.2 °F -2.0 °F 1024.9 in Calm     52 % 0.0 in 278.0 W/m2 CLR
10:46 7.8 °F -1.5 °F 1024.9 in Calm     52 % 0.0 in 353.0 W/m2 CLR
10:51 7.8 °F -2.0 °F 1024.9 in Calm     50 % 0.0 in 339.0 W/m2 CLR
11:01 8.9 °F -1.8 °F 1024.9 in Calm     47 % 0.0 in 287.0 W/m2 CLR
11:06 8.9 °F -2.4 °F 1024.9 in Calm     45 % 0.0 in 360.0 W/m2 CLR
11:11 9.4 °F -2.2 °F 1024.9 in Calm     44 % 0.0 in 301.0 W/m2 CLR
11:16 9.4 °F -2.2 °F 1024.6 in Calm     44 % 0.0 in 387.0 W/m2 CLR
11:21 10.0 °F -2.7 °F 1024.6 in NW 11.1 mph 11.1 mph 41 % 0.0 in 323.0 W/m2 CLR
11:26 10.6 °F -2.5 °F 1024.6 in NNE 11.3 mph 11.3 mph 40 % 0.0 in 269.0 W/m2 CLR
11:31 10.6 °F -2.8 °F 1024.9 in NNW 11.1 mph 11.1 mph 39 % 0.0 in 348.0 W/m2 CLR
11:36 11.1 °F -2.3 °F 1024.6 in NW 13.0 mph 13.0 mph 39 % 0.0 in 367.0 W/m2 CLR
11:41 11.1 °F -2.7 °F 1024.6 in NNW 11.1 mph 11.1 mph 38 % 0.0 in 452.0 W/m2 CLR
11:46 11.7 °F -2.2 °F 1024.6 in NNW 11.3 mph 11.3 mph 38 % 0.0 in 445.0 W/m2 CLR
11:51 11.7 °F -2.6 °F 1024.6 in NW 18.5 mph 18.5 mph 37 % 0.0 in 418.0 W/m2 CLR
11:56 11.7 °F -2.9 °F 1024.6 in NW 14.8 mph 14.8 mph 36 % 0.0 in 415.0 W/m2 CLR
12:01 11.7 °F -2.9 °F 1024.6 in NW 13.0 mph 13.0 mph 36 % 0.0 in 403.0 W/m2 CLR
12:06 11.7 °F -2.9 °F 1024.3 in NNW 14.8 mph 14.8 mph 36 % 0.0 in 408.0 W/m2 CLR
12:11 11.7 °F -2.9 °F 1024.3 in North 11.1 mph 11.1 mph 36 % 0.0 in 269.0 W/m2 CLR
12:16 11.7 °F -3.3 °F 1024.3 in NW 13.0 mph 13.0 mph 35 % 0.0 in 311.0 W/m2 CLR
12:21 11.7 °F -3.3 °F 1024.3 in NW 3.2 mph 3.2 mph 35 % 0.0 in 338.0 W/m2 CLR
12:26 11.7 °F -3.3 °F 1023.9 in North 13.0 mph 13.0 mph 35 % 0.0 in 374.0 W/m2 CLR
12:31 11.7 °F -3.3 °F 1023.9 in NNW 11.3 mph 11.3 mph 35 % 0.0 in 471.0 W/m2 CLR
12:36 12.2 °F -3.2 °F 1023.9 in NNE 14.8 mph 14.8 mph 34 % 0.0 in 508.0 W/m2 CLR
12:41 12.2 °F -3.2 °F 1023.6 in NNW 14.8 mph 14.8 mph 34 % 0.0 in 478.0 W/m2 CLR
12:46 12.2 °F -3.2 °F 1023.6 in North 14.8 mph 14.8 mph 34 % 0.0 in 541.0 W/m2 CLR
12:51 12.2 °F -2.8 °F 1023.6 in North 13.0 mph 13.0 mph 35 % 0.0 in 540.0 W/m2 CLR
12:52 12.2 °F -3.2 °F 1023.6 in NNE 13.0 mph 13.0 mph 34 % 0.0 in 538.0 W/m2 CLR
12:57 12.8 °F -3.1 °F 1023.6 in NW 7.4 mph 7.4 mph 33 % 0.0 in 522.0 W/m2 CLR
13:02 12.8 °F -3.1 °F 1023.2 in North 16.7 mph 16.7 mph 33 % 0.0 in 520.0 W/m2 CLR
13:07 12.8 °F -3.1 °F 1023.2 in Calm     33 % 0.0 in 517.0 W/m2 CLR
13:12 12.8 °F -3.1 °F 1022.9 in North 14.8 mph 14.8 mph 33 % 0.0 in 515.0 W/m2 CLR
13:17 12.8 °F -3.6 °F 1022.9 in NNW 13.0 mph 13.0 mph 32 % 0.0 in 513.0 W/m2 CLR
13:22 12.8 °F -3.1 °F 1022.9 in Calm     33 % 0.0 in 508.0 W/m2 CLR
13:28 13.3 °F -3.1 °F 1022.9 in Calm     32 % 0.0 in 499.0 W/m2 CLR
13:32 13.3 °F -3.1 °F 1022.9 in NNW 13.0 mph 13.0 mph 32 % 0.0 in 475.0 W/m2 CLR
13:33 13.3 °F -3.1 °F 1022.9 in NNW 13.0 mph 13.0 mph 32 % 0.0 in 473.0 W/m2 CLR
13:38 13.3 °F -3.1 °F 1022.6 in NNW 11.1 mph 11.1 mph 32 % 0.0 in 476.0 W/m2 CLR
13:43 13.3 °F -3.1 °F 1022.6 in Calm     32 % 0.0 in 490.0 W/m2 CLR
13:48 13.9 °F -2.6 °F 1022.6 in NW 11.3 mph 11.3 mph 32 % 0.0 in 476.0 W/m2 CLR
13:53 13.3 °F -3.1 °F 1022.6 in Calm     32 % 0.0 in 413.0 W/m2 CLR
13:58 13.3 °F -3.1 °F 1022.6 in Calm     32 % 0.0 in 462.0 W/m2 CLR
14:03 13.3 °F -3.1 °F 1022.2 in Calm     32 % 0.0 in 475.0 W/m2 CLR
14:08 13.3 °F -2.6 °F 1022.2 in Calm     33 % 0.0 in 441.0 W/m2 CLR
14:13 13.3 °F -3.1 °F 1022.2 in Calm     32 % 0.0 in 457.0 W/m2 CLR
14:18 13.3 °F -3.1 °F 1022.2 in ENE 3.7 mph   32 % 0.0 in 464.0 W/m2 CLR
14:23 13.9 °F -2.6 °F 1021.9 in NE 13.0 mph 13.0 mph 32 % 0.0 in 424.0 W/m2 CLR
14:28 13.9 °F -3.0 °F 1022.2 in Calm     31 % 0.0 in 345.0 W/m2 CLR
14:33 13.3 °F -3.4 °F 1022.2 in Calm     31 % 0.0 in 408.0 W/m2 CLR
14:39 13.3 °F -3.1 °F 1021.9 in Calm     32 % 0.0 in 401.0 W/m2 CLR
14:43 13.3 °F -3.4 °F 1021.9 in Calm     31 % 0.0 in 417.0 W/m2 CLR
14:49 13.9 °F -3.0 °F 1021.9 in Calm     31 % 0.0 in 362.0 W/m2 CLR
14:54 13.9 °F -3.0 °F 1021.9 in Calm     31 % 0.0 in 367.0 W/m2 CLR
14:59 13.9 °F -3.0 °F 1021.9 in East 1.9 mph   31 % 0.0 in 346.0 W/m2 CLR
15:04 13.9 °F -3.0 °F 1021.9 in East 1.9 mph   31 % 0.0 in 297.0 W/m2 CLR
15:09 13.3 °F -3.1 °F 1021.9 in Calm     32 % 0.0 in 297.0 W/m2 CLR
15:14 13.3 °F -3.4 °F 1021.9 in Calm     31 % 0.0 in 350.0 W/m2 CLR
15:19 13.9 °F -3.0 °F 1021.6 in Calm     31 % 0.0 in 299.0 W/m2 CLR
15:24 13.9 °F -3.0 °F 1021.9 in Calm     31 % 0.0 in 260.0 W/m2 CLR
15:29 13.3 °F -3.4 °F 1021.6 in Calm     31 % 0.0 in 218.0 W/m2 CLR
15:34 13.3 °F -3.4 °F 1021.6 in Calm     31 % 0.0 in 248.0 W/m2 CLR
15:39 13.3 °F -3.1 °F 1021.6 in Calm     32 % 0.0 in 239.0 W/m2 CLR
15:44 13.3 °F -3.1 °F 1021.6 in Calm     32 % 0.0 in 220.0 W/m2 CLR
15:49 13.3 °F -3.1 °F 1021.6 in Calm     32 % 0.0 in 211.0 W/m2 CLR
15:54 13.3 °F -3.4 °F 1021.6 in Calm     31 % 0.0 in 206.0 W/m2 CLR
15:59 13.3 °F -3.4 °F 1021.6 in Calm     31 % 0.0 in 167.0 W/m2 CLR
16:04 13.3 °F -3.4 °F 1021.6 in Calm     31 % 0.0 in 120.0 W/m2 CLR
16:09 12.8 °F -3.9 °F 1021.6 in Calm     31 % 0.0 in 107.0 W/m2 CLR
16:14 12.8 °F -3.6 °F 1021.6 in Calm     32 % 0.0 in 100.0 W/m2 CLR
16:19 12.8 °F -3.6 °F 1021.6 in Calm     32 % 0.0 in 100.0 W/m2 CLR
16:24 12.2 °F -4.0 °F 1021.6 in Calm     32 % 0.0 in 90.0 W/m2 CLR
16:29 12.2 °F -3.6 °F 1021.6 in Calm     33 % 0.0 in 79.0 W/m2 CLR
16:34 11.7 °F -4.1 °F 1021.6 in Calm     33 % 0.0 in 77.0 W/m2 FEW
16:39 11.7 °F -4.1 °F 1021.6 in Calm     33 % 0.0 in 65.0 W/m2 FEW
16:44 11.1 °F -4.6 °F 1021.6 in Calm     33 % 0.0 in 62.0 W/m2 SCT
16:49 11.1 °F -4.2 °F 1021.6 in Calm     34 % 0.0 in 65.0 W/m2 SCT
16:54 10.6 °F -4.7 °F 1021.6 in Calm     34 % 0.0 in 54.0 W/m2 SCT
16:59 10.6 °F -4.3 °F 1021.6 in Calm     35 % 0.0 in 51.0 W/m2 SCT
17:00 10.0 °F -4.8 °F 1021.6 in Calm     35 % 0.0 in 51.0 W/m2 SCT
17:05 10.0 °F -4.8 °F 1021.6 in Calm     35 % 0.0 in 44.0 W/m2 BKN
17:10 9.4 °F -5.3 °F 1021.6 in Calm     35 % 0.0 in 35.0 W/m2 BKN
17:15 9.4 °F -5.3 °F 1021.6 in Calm     35 % 0.0 in 26.0 W/m2 BKN
17:20 8.9 °F -5.8 °F 1021.6 in Calm     35 % 0.0 in 21.0 W/m2 BKN
17:25 8.3 °F -6.3 °F 1021.6 in Calm     35 % 0.0 in 14.0 W/m2 BKN
17:30 8.3 °F -6.3 °F 1021.6 in Calm     35 % 0.0 in 11.0 W/m2 BKN
17:35 7.8 °F -6.4 °F 1021.6 in Calm     36 % 0.0 in 7.0 W/m2 BKN
17:40 7.2 °F -6.5 °F 1021.6 in Calm     37 % 0.0 in 0.0 W/m2 OVC
17:45 7.2 °F -6.5 °F 1021.6 in Calm     37 % 0.0 in 0.0 W/m2 OVC
17:50 6.7 °F -6.7 °F 1021.6 in Calm     38 % 0.0 in 0.0 W/m2 OVC
17:55 6.7 °F -6.3 °F 1021.6 in Calm     39 % 0.0 in 0.0 W/m2 CLR
18:00 6.7 °F -6.0 °F 1021.6 in Calm     40 % 0.0 in 0.0 W/m2 CLR
18:05 7.2 °F -5.2 °F 1021.6 in Calm     41 % 0.0 in 0.0 W/m2 CLR
18:10 6.7 °F -5.7 °F 1021.6 in Calm     41 % 0.0 in 0.0 W/m2 CLR
18:15 6.7 °F -5.7 °F 1021.6 in Calm     41 % 0.0 in 0.0 W/m2 CLR
18:20 6.1 °F -5.9 °F 1021.9 in Calm     42 % 0.0 in 0.0 W/m2 CLR
18:25 5.6 °F -6.7 °F 1021.9 in Calm     41 % 0.0 in 0.0 W/m2 CLR
18:30 5.6 °F -6.1 °F 1021.9 in Calm     43 % 0.0 in 0.0 W/m2 CLR
18:35 5.0 °F -6.6 °F 1021.9 in Calm     43 % 0.0 in 0.0 W/m2 CLR
18:40 4.4 °F -6.8 °F 1021.9 in Calm     44 % 0.0 in 0.0 W/m2 CLR
18:45 4.4 °F -6.5 °F 1021.9 in Calm     45 % 0.0 in 0.0 W/m2 CLR
18:50 3.9 °F -7.0 °F 1022.2 in Calm     45 % 0.0 in 0.0 W/m2 CLR
18:55 3.9 °F -6.7 °F 1021.9 in Calm     46 % 0.0 in 0.0 W/m2 CLR
19:00 3.9 °F -6.7 °F 1022.2 in Calm     46 % 0.0 in 0.0 W/m2 CLR
19:05 3.3 °F -6.9 °F 1022.2 in Calm     47 % 0.0 in 0.0 W/m2 CLR
19:10 3.3 °F -6.7 °F 1022.2 in Calm     48 % 0.0 in 0.0 W/m2 CLR
19:15 3.3 °F -6.7 °F 1022.2 in Calm     48 % 0.0 in 0.0 W/m2 CLR
19:20 2.8 °F -6.9 °F 1022.2 in Calm     49 % 0.0 in 0.0 W/m2 CLR
19:25 2.8 °F -6.9 °F 1022.2 in Calm     49 % 0.0 in 0.0 W/m2 CLR
19:30 2.2 °F -7.4 °F 1022.2 in Calm     49 % 0.0 in 0.0 W/m2 CLR
19:35 2.2 °F -7.2 °F 1022.2 in Calm     50 % 0.0 in 0.0 W/m2 CLR
19:40 1.7 °F -7.4 °F 1022.6 in Calm     51 % 0.0 in 0.0 W/m2 CLR
19:45 1.7 °F -7.4 °F 1022.6 in Calm     51 % 0.0 in 0.0 W/m2 CLR
19:50 1.7 °F -7.4 °F 1022.6 in Calm     51 % 0.0 in 0.0 W/m2 CLR
19:55 1.7 °F -7.4 °F 1022.6 in Calm     51 % 0.0 in 0.0 W/m2 CLR
20:05 2.2 °F -6.6 °F 1022.6 in Calm     52 % 0.0 in 0.0 W/m2 CLR
20:10 2.2 °F -6.6 °F 1022.6 in Calm     52 % 0.0 in 0.0 W/m2 CLR
20:15 1.7 °F -7.2 °F 1022.6 in Calm     52 % 0.0 in 0.0 W/m2 CLR
20:21 1.7 °F -7.2 °F 1022.6 in Calm     52 % 0.0 in 0.0 W/m2 CLR
20:23 1.7 °F -7.2 °F 1022.9 in Calm     52 % 0.0 in 0.0 W/m2 CLR
20:28 1.7 °F -6.9 °F 1022.6 in Calm     53 % 0.0 in 0.0 W/m2 CLR
20:33 1.7 °F -6.9 °F 1022.6 in Calm     53 % 0.0 in 0.0 W/m2 CLR
20:38 2.2 °F -6.2 °F 1022.6 in Calm     54 % 0.0 in 0.0 W/m2 CLR
20:43 2.2 °F -6.2 °F 1022.9 in Calm     54 % 0.0 in 0.0 W/m2 CLR
20:48 2.2 °F -6.2 °F 1022.9 in Calm     54 % 0.0 in 0.0 W/m2 CLR
20:53 1.7 °F -6.4 °F 1022.9 in Calm     55 % 0.0 in 0.0 W/m2 CLR
20:58 1.7 °F -6.4 °F 1022.9 in Calm     55 % 0.0 in 0.0 W/m2 CLR
21:03 1.7 °F -6.4 °F 1022.9 in Calm     55 % 0.0 in 0.0 W/m2 CLR
21:08 1.7 °F -6.4 °F 1022.9 in Calm     55 % 0.0 in 0.0 W/m2 CLR
21:13 1.7 °F -6.4 °F 1022.9 in Calm     55 % 0.0 in 0.0 W/m2 CLR
21:18 1.1 °F -6.9 °F 1023.2 in Calm     55 % 0.0 in 0.0 W/m2 CLR
21:23 1.1 °F -6.9 °F 1023.2 in Calm     55 % 0.0 in 0.0 W/m2 CLR
21:28 0.6 °F -7.2 °F 1023.2 in Calm     56 % 0.0 in 0.0 W/m2 CLR
21:33 0.6 °F -7.2 °F 1023.2 in Calm     56 % 0.0 in 0.0 W/m2 CLR
21:38 0.6 °F -7.0 °F 1023.2 in Calm     57 % 0.0 in 0.0 W/m2 CLR
21:43 0.6 °F -6.8 °F 1023.2 in Calm     58 % 0.0 in 0.0 W/m2 CLR
21:48 1.1 °F -6.2 °F 1023.6 in Calm     58 % 0.0 in 0.0 W/m2 CLR
21:53 1.1 °F -6.0 °F 1023.6 in Calm     59 % 0.0 in 0.0 W/m2 CLR
21:58 1.1 °F -6.0 °F 1023.6 in Calm     59 % 0.0 in 0.0 W/m2 CLR
22:03 0.6 °F -6.6 °F 1023.6 in Calm     59 % 0.0 in 0.0 W/m2 CLR
22:08 0.6 °F -6.6 °F 1023.6 in Calm     59 % 0.0 in 0.0 W/m2 CLR
22:13 0.0 °F -6.8 °F 1023.2 in Calm     60 % 0.0 in 0.0 W/m2 CLR
22:18 0.6 °F -6.6 °F 1023.2 in Calm     59 % 0.0 in 0.0 W/m2 CLR
22:23 0.0 °F -7.1 °F 1023.2 in Calm     59 % 0.0 in 0.0 W/m2 CLR
22:25 0.0 °F -7.1 °F 1023.2 in Calm     59 % 0.0 in 0.0 W/m2 CLR
22:30 -0.6 °F -7.6 °F 1023.2 in Calm     59 % 0.0 in 0.0 W/m2 CLR
22:35 -0.6 °F -7.6 °F 1023.2 in Calm     59 % 0.0 in 0.0 W/m2 CLR
22:40 -1.1 °F -7.9 °F 1023.2 in Calm     60 % 0.0 in 0.0 W/m2 CLR
22:45 -1.1 °F -7.9 °F 1023.2 in Calm     60 % 0.0 in 0.0 W/m2 CLR
22:50 -0.6 °F -7.4 °F 1023.6 in Calm     60 % 0.0 in 0.0 W/m2 CLR
22:55 -1.1 °F -7.9 °F 1023.6 in Calm     60 % 0.0 in 0.0 W/m2 CLR
23:00 -1.1 °F -7.9 °F 1023.6 in Calm     60 % 0.0 in 0.0 W/m2 CLR
23:05 -1.1 °F -7.9 °F 1023.6 in Calm     60 % 0.0 in 0.0 W/m2 CLR
23:10 -1.1 °F -7.7 °F 1023.2 in Calm     61 % 0.0 in 0.0 W/m2 CLR
23:15 -0.6 °F -7.2 °F 1023.6 in Calm     61 % 0.0 in 0.0 W/m2 CLR
23:20 -0.6 °F -7.2 °F 1023.2 in Calm     61 % 0.0 in 0.0 W/m2 CLR
23:25 -0.6 °F -7.2 °F 1023.2 in Calm     61 % 0.0 in 0.0 W/m2 CLR
23:30 -0.6 °F -7.2 °F 1023.6 in Calm     61 % 0.0 in 0.0 W/m2 CLR
23:35 -0.6 °F -7.2 °F 1023.6 in Calm     61 % 0.0 in 0.0 W/m2 CLR
23:40 -0.6 °F -6.9 °F 1023.2 in Calm     62 % 0.0 in 0.0 W/m2 CLR
23:45 -0.6 °F -6.9 °F 1023.2 in Calm     62 % 0.0 in 0.0 W/m2 CLR
23:50 -0.6 °F -6.7 °F 1023.2 in Calm     63 % 0.0 in 0.0 W/m2 CLR
23:55 -0.6 °F -6.7 °F 1023.2 in Calm     63 % 0.0 in 0.0 W/m2 CLR
Lo Temps de Massalio
Compliments of Weather Underground - 1.25 mb